Eloisa — WDC9599 — position and weather

sailwx.info

Track history (hours):
 
Tides and Currents Weather Stations Pressure Air Temp Water Temp Dewpoint Dewpoint Depression Visibility Wind Speed Wind Dir Waves Ship Positions

Eloisa

Owner: ENGLE, DUANE C, SHORELINE, WA. More information available from US FCC via Universal Licensing System and Coast Guard Vessel Documentation Center.

Last reported at 2018-Jun-19 00:13 UTC. Time now 2018-Jun-23 08:03 UTC.
Position N 58°43' W 135°60'.

Length 15 m.

Type: Pleasure craft. MMSI: 367104410.

Date/timePositionNaut miles runAvg speedWind from/ knotsBaromVisibWave heightAir tempDewpointWater temp
2018-Jun-19 00:13N 58°43' W 135°60'1 3.1
2018-Jun-18 23:52N 58°42' W 136°01'2 4.3
2018-Jun-18 23:25N 58°41' W 135°58'2 4.5
2018-Jun-18 23:00N 58°39' W 135°58'1 2.6
2018-Jun-18 22:27N 58°38' W 135°59'3 7.3
2018-Jun-18 22:00N 58°35' W 136°02'4 7.9
2018-Jun-18 21:30N 58°31' W 136°04'4 8.3
2018-Jun-18 21:00N 58°27' W 136°00'3 5.8
2018-Jun-18 20:30N 58°27' W 135°55'1 0.1
2018-Jun-18 06:04N 58°28' W 135°53'0 0.0
2018-Jun-18 05:58N 58°28' W 135°53'0 0.0
2018-Jun-18 05:28N 58°28' W 135°53'0 0.0
2018-Jun-18 04:58N 58°28' W 135°53'0 0.0
2018-Jun-18 04:28N 58°28' W 135°53'0 0.0
2018-Jun-18 03:58N 58°28' W 135°53'0 0.0
2018-Jun-18 03:28N 58°28' W 135°53'0 0.0
2018-Jun-18 02:58N 58°28' W 135°53'0 0.0
2018-Jun-17 23:37N 58°28' W 135°53'0 0.0
2018-Jun-17 23:28N 58°28' W 135°53'0 0.4
2018-Jun-17 22:59N 58°27' W 135°53'0 0.0
2018-Jun-17 22:29N 58°27' W 135°53'0 0.0
2018-Jun-17 21:59N 58°27' W 135°53'0 0.0
2018-Jun-17 21:29N 58°27' W 135°53'0 0.0
2018-Jun-17 20:59N 58°27' W 135°53'0 0.0
2018-Jun-17 20:29N 58°27' W 135°53'1 1.3
2018-Jun-17 20:00N 58°27' W 135°54'4 7.8
2018-Jun-17 19:30N 58°24' W 135°57'13 5.9
2018-Jun-17 17:20N 58°23' W 135°33'  
Track history (hours):
 
Tides and Currents Weather Stations Pressure Air Temp Water Temp Dewpoint Dewpoint Depression Visibility Wind Speed Wind Dir Waves Ship Positions

Eloisa

Owner: ENGLE, DUANE C, SHORELINE, WA. More information available from US FCC via Universal Licensing System and Coast Guard Vessel Documentation Center.

Last reported at 2018-Jun-19 00:13 UTC. Time now 2018-Jun-23 08:03 UTC.
Position N 58°43' W 135°60'.

Length 15 m.

Type: Pleasure craft. MMSI: 367104410.

Date/timePositionNaut miles runAvg speedWind from/ knotsBaromVisibWave heightAir tempDewpointWater temp
2018-Jun-19 00:13N 58°43' W 135°60'1 3.1
2018-Jun-18 23:52N 58°42' W 136°01'2 4.3
2018-Jun-18 23:25N 58°41' W 135°58'2 4.5
2018-Jun-18 23:00N 58°39' W 135°58'1 2.6
2018-Jun-18 22:27N 58°38' W 135°59'3 7.3
2018-Jun-18 22:00N 58°35' W 136°02'4 7.9
2018-Jun-18 21:30N 58°31' W 136°04'4 8.3
2018-Jun-18 21:00N 58°27' W 136°00'3 5.8
2018-Jun-18 20:30N 58°27' W 135°55'1 0.1
2018-Jun-18 06:04N 58°28' W 135°53'0 0.0
2018-Jun-18 05:58N 58°28' W 135°53'0 0.0
2018-Jun-18 05:28N 58°28' W 135°53'0 0.0
2018-Jun-18 04:58N 58°28' W 135°53'0 0.0
2018-Jun-18 04:28N 58°28' W 135°53'0 0.0
2018-Jun-18 03:58N 58°28' W 135°53'0 0.0
2018-Jun-18 03:28N 58°28' W 135°53'0 0.0
2018-Jun-18 02:58N 58°28' W 135°53'0 0.0
2018-Jun-17 23:37N 58°28' W 135°53'0 0.0
2018-Jun-17 23:28N 58°28' W 135°53'0 0.4
2018-Jun-17 22:59N 58°27' W 135°53'0 0.0
2018-Jun-17 22:29N 58°27' W 135°53'0 0.0
2018-Jun-17 21:59N 58°27' W 135°53'0 0.0
2018-Jun-17 21:29N 58°27' W 135°53'0 0.0
2018-Jun-17 20:59N 58°27' W 135°53'0 0.0
2018-Jun-17 20:29N 58°27' W 135°53'1 1.3
2018-Jun-17 20:00N 58°27' W 135°54'4 7.8
2018-Jun-17 19:30N 58°24' W 135°57'13 5.9
2018-Jun-17 17:20N 58°23' W 135°33'  

Dump ship's entire track history